Time,TemperatureF,DewpointF,PressureIn,WindDirection,WindDirectionDegrees,WindSpeedMPH,WindSpeedGustMPH,Humidity,HourlyPrecipIn,Conditions,Clouds,dailyrainin,SolarRadiationWatts/m^2,SoftwareType,DateUTC
2013-12-08 00:11:00,19.0,12.0,-100.00,NE,38,1.0,2.0,73,0.00,,,0.61,0.000000,,2013-12-08 00:11:00,
2013-12-08 00:22:00,19.0,12.0,-100.00,NE,38,1.0,2.0,73,0.00,,,0.61,0.000000,,2013-12-08 00:22:00,
2013-12-08 00:32:00,19.0,12.0,-100.00,NE,38,1.0,2.0,73,0.00,,,0.61,0.000000,,2013-12-08 00:32:00,
2013-12-08 00:42:00,19.0,12.0,-100.00,NE,38,1.0,2.0,73,0.00,,,0.61,0.000000,,2013-12-08 00:42:00,
2013-12-08 01:12:00,18.0,11.0,-100.00,NNE,13,1.0,3.0,75,0.00,,,0.61,0.000000,,2013-12-08 01:12:00,
2013-12-08 01:22:00,18.0,11.0,-100.00,NNE,13,1.0,3.0,75,0.00,,,0.61,0.000000,,2013-12-08 01:22:00,
2013-12-08 01:32:00,18.0,11.0,-100.00,NNE,13,1.0,3.0,75,0.00,,,0.61,0.000000,,2013-12-08 01:32:00,
2013-12-08 01:42:00,18.0,11.0,-100.00,NNE,13,1.0,3.0,75,0.00,,,0.61,0.000000,,2013-12-08 01:42:00,
2013-12-08 02:12:00,18.0,11.0,-100.00,NNE,24,2.0,4.0,74,0.00,,,0.61,0.000000,,2013-12-08 02:12:00,
2013-12-08 02:22:00,18.0,11.0,-100.00,NNE,24,2.0,4.0,74,0.00,,,0.61,0.000000,,2013-12-08 02:22:00,
2013-12-08 02:32:00,18.0,11.0,-100.00,NNE,24,2.0,4.0,74,0.00,,,0.61,0.000000,,2013-12-08 02:32:00,
2013-12-08 02:43:00,18.0,11.0,-100.00,NNE,24,2.0,4.0,74,0.00,,,0.61,0.000000,,2013-12-08 02:43:00,
2013-12-08 03:11:00,18.0,12.0,-100.00,ENE,63,2.0,6.0,76,0.00,,,0.61,0.000000,,2013-12-08 03:11:00,
2013-12-08 03:22:00,18.0,12.0,-100.00,ENE,63,2.0,6.0,76,0.00,,,0.61,0.000000,,2013-12-08 03:22:00,
2013-12-08 03:33:00,18.0,12.0,-100.00,ENE,63,2.0,6.0,76,0.00,,,0.61,0.000000,,2013-12-08 03:33:00,
2013-12-08 03:43:00,18.0,12.0,-100.00,ENE,63,2.0,6.0,76,0.00,,,0.61,0.000000,,2013-12-08 03:43:00,
2013-12-08 04:02:00,-999.0,-99.9,-100.00,ENE,67,3.0,6.0,-999,0.00,,,0.61,0.000000,,2013-12-08 04:02:00,
2013-12-08 04:13:00,19.0,13.0,-100.00,ENE,67,3.0,6.0,76,0.00,,,0.61,0.000000,,2013-12-08 04:13:00,
2013-12-08 04:23:00,19.0,13.0,-100.00,ENE,67,3.0,6.0,76,0.00,,,0.61,0.000000,,2013-12-08 04:23:00,
2013-12-08 04:33:00,19.0,13.0,-100.00,ENE,67,3.0,6.0,76,0.00,,,0.61,0.000000,,2013-12-08 04:33:00,
2013-12-08 04:43:00,19.0,13.0,-100.00,ENE,67,3.0,6.0,76,0.00,,,0.61,0.000000,,2013-12-08 04:43:00,
2013-12-08 05:12:00,19.0,12.0,-100.00,NE,45,2.0,6.0,74,0.00,,,0.61,0.000000,,2013-12-08 05:12:00,
2013-12-08 05:23:00,19.0,12.0,-100.00,NE,45,2.0,6.0,74,0.00,,,0.61,0.000000,,2013-12-08 05:23:00,
2013-12-08 05:34:00,19.0,12.0,-100.00,NE,45,2.0,6.0,74,0.00,,,0.61,0.000000,,2013-12-08 05:34:00,
2013-12-08 05:43:00,19.0,12.0,-100.00,NE,45,2.0,6.0,74,0.00,,,0.61,0.000000,,2013-12-08 05:43:00,
2013-12-08 06:12:00,20.0,12.0,-100.00,East,98,2.0,6.0,71,0.00,,,0.61,0.000000,,2013-12-08 06:12:00,
2013-12-08 06:23:00,20.0,12.0,-100.00,East,98,2.0,6.0,71,0.00,,,0.61,0.000000,,2013-12-08 06:23:00,
2013-12-08 06:32:00,20.0,12.0,-100.00,East,98,2.0,6.0,71,0.00,,,0.61,0.000000,,2013-12-08 06:32:00,
2013-12-08 06:42:00,20.0,12.0,-100.00,East,98,2.0,6.0,71,0.00,,,0.61,0.000000,,2013-12-08 06:42:00,
2013-12-08 07:12:00,20.0,12.0,-100.00,ENE,72,2.0,5.0,72,0.00,,,0.61,0.000000,,2013-12-08 07:12:00,
2013-12-08 07:22:00,20.0,12.0,-100.00,ENE,72,2.0,5.0,72,0.00,,,0.61,0.000000,,2013-12-08 07:22:00,
2013-12-08 07:32:00,20.0,12.0,-100.00,ENE,72,2.0,5.0,72,0.00,,,0.61,0.000000,,2013-12-08 07:32:00,
2013-12-08 07:42:00,20.0,12.0,-100.00,ENE,72,2.0,5.0,72,0.00,,,0.61,0.000000,,2013-12-08 07:42:00,
2013-12-08 08:12:00,20.0,13.0,-100.00,East,89,3.0,6.0,73,0.00,,,0.61,0.000000,,2013-12-08 08:12:00,
2013-12-08 08:22:00,20.0,13.0,-100.00,East,89,3.0,6.0,73,0.00,,,0.61,0.000000,,2013-12-08 08:22:00,
2013-12-08 08:32:00,20.0,13.0,-100.00,East,89,3.0,6.0,73,0.00,,,0.61,0.000000,,2013-12-08 08:32:00,
2013-12-08 08:42:00,20.0,13.0,-100.00,East,89,3.0,6.0,73,0.00,,,0.61,0.000000,,2013-12-08 08:42:00,
2013-12-08 09:11:00,20.0,13.0,-100.00,East,91,3.0,7.0,73,0.00,,,0.61,0.000000,,2013-12-08 09:11:00,
2013-12-08 09:22:00,20.0,13.0,-100.00,East,91,3.0,7.0,73,0.00,,,0.61,0.000000,,2013-12-08 09:22:00,
2013-12-08 09:33:00,20.0,13.0,-100.00,East,91,3.0,7.0,73,0.00,,,0.61,0.000000,,2013-12-08 09:33:00,
2013-12-08 09:43:00,20.0,13.0,-100.00,East,91,3.0,7.0,73,0.00,,,0.61,0.000000,,2013-12-08 09:43:00,
2013-12-08 10:12:00,20.0,13.0,-100.00,ENE,60,2.0,7.0,73,0.00,,,0.61,0.000000,,2013-12-08 10:12:00,
2013-12-08 10:23:00,20.0,13.0,-100.00,ENE,60,2.0,7.0,73,0.00,,,0.61,0.000000,,2013-12-08 10:23:00,
2013-12-08 10:33:00,20.0,13.0,-100.00,ENE,60,2.0,7.0,73,0.00,,,0.61,0.000000,,2013-12-08 10:33:00,
2013-12-08 10:43:00,20.0,13.0,-100.00,ENE,60,2.0,7.0,73,0.00,,,0.61,0.000000,,2013-12-08 10:43:00,
2013-12-08 11:12:00,20.0,14.0,-100.00,NE,53,3.0,6.0,76,0.00,,,0.61,0.000000,,2013-12-08 11:12:00,
2013-12-08 11:22:00,20.0,14.0,-100.00,NE,53,3.0,6.0,76,0.00,,,0.61,0.000000,,2013-12-08 11:22:00,
2013-12-08 11:33:00,20.0,14.0,-100.00,NE,53,3.0,6.0,76,0.00,,,0.61,0.000000,,2013-12-08 11:33:00,
2013-12-08 11:43:00,20.0,14.0,-100.00,NE,53,3.0,6.0,76,0.00,,,0.61,0.000000,,2013-12-08 11:43:00,
2013-12-08 12:12:00,21.0,15.0,-100.00,NE,47,3.0,6.0,77,0.00,,,0.61,0.000000,,2013-12-08 12:12:00,
2013-12-08 12:22:00,21.0,15.0,-100.00,NE,47,3.0,6.0,77,0.00,,,0.61,0.000000,,2013-12-08 12:22:00,
2013-12-08 12:32:00,21.0,15.0,-100.00,NE,47,3.0,6.0,77,0.00,,,0.61,0.000000,,2013-12-08 12:32:00,
2013-12-08 12:42:00,21.0,15.0,-100.00,NE,47,3.0,6.0,77,0.00,,,0.61,0.000000,,2013-12-08 12:42:00,
2013-12-08 13:11:00,21.0,15.0,-100.00,NE,45,3.0,6.0,76,0.00,,,0.61,0.000000,,2013-12-08 13:11:00,
2013-12-08 13:22:00,21.0,15.0,-100.00,NE,45,3.0,6.0,76,0.00,,,0.61,0.000000,,2013-12-08 13:22:00,
2013-12-08 13:32:00,21.0,15.0,-100.00,NE,45,3.0,6.0,76,0.00,,,0.61,0.000000,,2013-12-08 13:32:00,
2013-12-08 13:42:00,21.0,15.0,-100.00,NE,45,3.0,6.0,76,0.00,,,0.61,0.000000,,2013-12-08 13:42:00,
2013-12-08 14:12:00,22.0,15.0,-100.00,East,86,3.0,10.0,75,0.00,,,0.61,3.000000,,2013-12-08 14:12:00,
2013-12-08 14:22:00,22.0,15.0,-100.00,East,86,3.0,10.0,75,0.00,,,0.61,3.000000,,2013-12-08 14:22:00,
2013-12-08 14:32:00,22.0,15.0,-100.00,East,86,3.0,10.0,75,0.00,,,0.61,3.000000,,2013-12-08 14:32:00,
2013-12-08 14:42:00,22.0,15.0,-100.00,East,86,3.0,10.0,75,0.00,,,0.61,3.000000,,2013-12-08 14:42:00,
2013-12-08 15:11:00,24.0,16.0,-100.00,ENE,69,3.0,9.0,72,0.00,,,0.61,19.000000,,2013-12-08 15:11:00,
2013-12-08 15:22:00,24.0,16.0,-100.00,ENE,69,3.0,9.0,72,0.00,,,0.61,19.000000,,2013-12-08 15:22:00,
2013-12-08 15:33:00,24.0,16.0,-100.00,ENE,69,3.0,9.0,72,0.00,,,0.61,19.000000,,2013-12-08 15:33:00,
2013-12-08 15:43:00,24.0,16.0,-100.00,ENE,69,3.0,9.0,72,0.00,,,0.61,19.000000,,2013-12-08 15:43:00,
2013-12-08 16:13:00,25.0,18.0,-100.00,ESE,108,4.0,8.0,73,0.00,,,0.60,30.000000,,2013-12-08 16:13:00,
2013-12-08 16:23:00,25.0,18.0,-100.00,ESE,108,4.0,8.0,73,0.00,,,0.60,30.000000,,2013-12-08 16:23:00,
2013-12-08 16:33:00,25.0,18.0,-100.00,ESE,108,4.0,8.0,73,0.00,,,0.60,30.000000,,2013-12-08 16:33:00,
2013-12-08 16:43:00,25.0,18.0,-100.00,ESE,108,4.0,8.0,73,0.00,,,0.60,30.000000,,2013-12-08 16:43:00,
2013-12-08 17:12:00,26.0,19.0,-100.00,ESE,114,3.0,9.0,76,0.00,,,0.60,32.000000,,2013-12-08 17:12:00,
2013-12-08 17:22:00,26.0,19.0,-100.00,ESE,114,3.0,9.0,76,0.00,,,0.60,32.000000,,2013-12-08 17:22:00,
2013-12-08 17:33:00,26.0,19.0,-100.00,ESE,114,3.0,9.0,76,0.00,,,0.60,32.000000,,2013-12-08 17:33:00,
2013-12-08 17:43:00,26.0,19.0,-100.00,ESE,114,3.0,9.0,76,0.00,,,0.60,32.000000,,2013-12-08 17:43:00,
2013-12-08 18:12:00,28.0,21.0,-100.00,ENE,59,3.0,7.0,76,0.00,,,0.45,38.000000,,2013-12-08 18:12:00,
2013-12-08 18:22:00,28.0,21.0,-100.00,ENE,59,3.0,7.0,76,0.00,,,0.45,38.000000,,2013-12-08 18:22:00,
2013-12-08 18:32:00,28.0,21.0,-100.00,ENE,59,3.0,7.0,76,0.00,,,0.45,38.000000,,2013-12-08 18:32:00,
2013-12-08 18:42:00,28.0,21.0,-100.00,ENE,59,3.0,7.0,76,0.00,,,0.45,38.000000,,2013-12-08 18:42:00,
2013-12-08 19:12:00,28.0,22.0,-100.00,ESE,105,4.0,9.0,78,0.00,,,0.32,39.000000,,2013-12-08 19:12:00,
2013-12-08 19:22:00,28.0,22.0,-100.00,ESE,105,4.0,9.0,78,0.00,,,0.32,39.000000,,2013-12-08 19:22:00,
2013-12-08 19:32:00,28.0,22.0,-100.00,ESE,105,4.0,9.0,78,0.00,,,0.32,39.000000,,2013-12-08 19:32:00,
2013-12-08 19:42:00,28.0,22.0,-100.00,ESE,105,4.0,9.0,78,0.00,,,0.32,39.000000,,2013-12-08 19:42:00,
2013-12-08 20:11:00,28.0,23.0,-100.00,East,83,2.0,9.0,80,0.00,,,0.17,34.000000,,2013-12-08 20:11:00,
2013-12-08 20:22:00,28.0,23.0,-100.00,East,83,2.0,9.0,80,0.00,,,0.17,34.000000,,2013-12-08 20:22:00,
2013-12-08 20:32:00,28.0,23.0,-100.00,East,83,2.0,9.0,80,0.00,,,0.17,34.000000,,2013-12-08 20:32:00,
2013-12-08 20:42:00,28.0,23.0,-100.00,East,83,2.0,9.0,80,0.00,,,0.17,34.000000,,2013-12-08 20:42:00,
2013-12-08 21:12:00,28.0,24.0,-100.00,ESE,103,2.0,6.0,84,0.00,,,0.02,20.000000,,2013-12-08 21:12:00,
2013-12-08 21:22:00,28.0,24.0,-100.00,ESE,103,2.0,6.0,84,0.00,,,0.02,20.000000,,2013-12-08 21:22:00,
2013-12-08 21:33:00,28.0,24.0,-100.00,ESE,103,2.0,6.0,84,0.00,,,0.02,20.000000,,2013-12-08 21:33:00,
2013-12-08 21:43:00,28.0,24.0,-100.00,ESE,103,2.0,6.0,84,0.00,,,0.02,20.000000,,2013-12-08 21:43:00,
2013-12-08 22:13:00,27.0,25.0,-100.00,SSE,154,3.0,6.0,92,0.00,,,0.00,9.000000,,2013-12-08 22:13:00,
2013-12-08 22:23:00,27.0,25.0,-100.00,SSE,154,3.0,6.0,92,0.00,,,0.00,9.000000,,2013-12-08 22:23:00,
2013-12-08 22:33:00,27.0,25.0,-100.00,SSE,154,3.0,6.0,92,0.00,,,0.00,9.000000,,2013-12-08 22:33:00,
2013-12-08 22:43:00,27.0,25.0,-100.00,SSE,154,3.0,6.0,92,0.00,,,0.00,9.000000,,2013-12-08 22:43:00,
2013-12-08 23:12:00,27.0,26.0,-100.00,SE,146,2.0,5.0,94,0.00,,,0.00,1.000000,,2013-12-08 23:12:00,
2013-12-08 23:22:00,27.0,26.0,-100.00,SE,146,2.0,5.0,94,0.00,,,0.00,1.000000,,2013-12-08 23:22:00,
2013-12-08 23:32:00,27.0,26.0,-100.00,SE,146,2.0,5.0,94,0.00,,,0.00,1.000000,,2013-12-08 23:32:00,
2013-12-08 23:42:00,27.0,26.0,-100.00,SE,146,2.0,5.0,94,0.00,,,0.00,1.000000,,2013-12-08 23:42:00,